Minnetrista, Minnesota
Current Conditions -  °F | °C
As of 6:53 PM on Monday 20 Oct 2014 (Local Time) from KFCM Reporting Station
Clear Clear  
Wind Chill: 56°   Ceiling: Unl
Heat Index: 56°   Visibility: 10mi
Dew Point: 39°   Wind: 6mph
Humidity: 53%   Direction: 350°N
Pressure: 30.01"   Gusts: NA
Location:  44.8587°N, 93.7796°W
Report Text: KFCM 202353Z 35005KT 10SM CLR 13/04 A3001 RMK AO2 SLP167 T01330039 10178 20133 53013
Loading
Personal Weather Stations






























Interactive Weather Map New forecast layout! Learn more

10-Day Weather Forecast

Advertisements
Track Severe Weather on mobile